Time;durP1;ratioP1;P1;durP2;ratioP2;P2;SDS_P1;SDS_P2;PMS_P1;PMS_P2;Temp;Humidity;BMP_temperature;BMP_pressure;BME280_temperature;BME280_humidity;BME280_pressure;Samples;Min_cycle;Max_cycle;Signal;HPM_P1;HPM_P2
2024/01/23 00:01:04;;;;;;;8.87;2.53;;;6.60;99.90;;;;;;5007277;28;20252;-70
2024/01/23 00:03:31;;;;;;;5.23;2.07;;;6.60;99.90;;;;;;5007457;28;20206;-71
2024/01/23 00:05:58;;;;;;;2.43;1.90;;;6.60;99.90;;;;;;5007586;28;20241;-70
2024/01/23 00:08:25;;;;;;;6.93;2.07;;;6.70;99.90;;;;;;5006736;28;20263;-70
2024/01/23 00:10:52;;;;;;;5.70;2.30;;;6.70;99.90;;;;;;5007317;28;20237;-70
2024/01/23 00:13:19;;;;;;;6.03;2.00;;;6.70;99.90;;;;;;5006969;28;20212;-71
2024/01/23 00:15:46;;;;;;;4.63;1.80;;;6.70;99.90;;;;;;5007451;28;20209;-70
2024/01/23 00:18:14;;;;;;;6.27;1.80;;;6.70;99.90;;;;;;5007189;28;20755;-70
2024/01/23 00:20:41;;;;;;;6.10;1.90;;;6.70;99.90;;;;;;5007331;28;20320;-70
2024/01/23 00:23:09;;;;;;;6.30;2.03;;;6.70;99.90;;;;;;5006975;28;20244;-70
2024/01/23 00:25:35;;;;;;;5.10;2.10;;;6.80;99.90;;;;;;5006711;28;20774;-70
2024/01/23 00:28:03;;;;;;;3.67;1.70;;;6.90;99.90;;;;;;5023024;28;20554;-70
2024/01/23 00:30:30;;;;;;;7.63;1.97;;;6.90;99.90;;;;;;5027037;28;20223;-71
2024/01/23 00:32:57;;;;;;;3.53;1.70;;;6.90;99.90;;;;;;5010056;28;20201;-71
2024/01/23 00:35:25;;;;;;;2.57;1.20;;;6.80;99.90;;;;;;5006913;28;20687;-71
2024/01/23 00:37:52;;;;;;;4.30;1.43;;;6.70;99.90;;;;;;5007711;28;20288;-72
2024/01/23 00:40:19;;;;;;;3.90;1.63;;;6.70;99.90;;;;;;5007533;28;20638;-72
2024/01/23 00:42:46;;;;;;;3.97;1.57;;;6.70;99.90;;;;;;5006877;28;20292;-72
2024/01/23 00:45:13;;;;;;;2.93;1.67;;;6.60;99.90;;;;;;5007264;28;20331;-72
2024/01/23 00:47:39;;;;;;;2.37;1.57;;;6.60;99.90;;;;;;5006678;28;20325;-72
2024/01/23 00:50:07;;;;;;;3.97;1.70;;;6.50;99.90;;;;;;5007019;28;20251;-72
2024/01/23 00:52:35;;;;;;;7.93;1.60;;;6.50;99.90;;;;;;5006525;28;20332;-72
2024/01/23 00:55:04;;;;;;;3.20;1.60;;;6.40;99.90;;;;;;5007072;28;20217;-72
2024/01/23 00:57:32;;;;;;;4.13;1.60;;;6.40;99.90;;;;;;5006489;28;20213;-72
2024/01/23 01:00:00;;;;;;;5.50;1.80;;;6.40;99.90;;;;;;5006985;28;20666;-72
2024/01/23 01:02:28;;;;;;;3.63;1.80;;;6.30;99.90;;;;;;5006505;28;20249;-71
2024/01/23 01:04:55;;;;;;;3.40;1.40;;;6.20;99.90;;;;;;5006776;28;20280;-71
2024/01/23 01:07:21;;;;;;;6.00;1.57;;;6.10;99.90;;;;;;5006643;28;20339;-71
2024/01/23 01:09:50;;;;;;;4.40;1.43;;;6.00;99.90;;;;;;5006751;28;20682;-71
2024/01/23 01:12:17;;;;;;;4.80;1.63;;;6.00;99.90;;;;;;5006602;28;20996;-71
2024/01/23 01:14:43;;;;;;;2.30;1.80;;;5.90;99.90;;;;;;5006493;28;20717;-71
2024/01/23 01:17:10;;;;;;;4.77;1.60;;;5.90;99.90;;;;;;5006785;28;20301;-71
2024/01/23 01:19:37;;;;;;;6.03;1.83;;;5.90;99.90;;;;;;5006461;28;20751;-71
2024/01/23 01:22:05;;;;;;;3.50;1.33;;;5.90;99.90;;;;;;5006244;28;20241;-70
2024/01/23 01:24:32;;;;;;;4.33;1.30;;;5.90;99.90;;;;;;5006720;28;20215;-71
2024/01/23 01:27:00;;;;;;;3.63;1.50;;;5.90;99.90;;;;;;5006739;28;20272;-71
2024/01/23 01:29:27;;;;;;;5.73;1.60;;;5.90;99.90;;;;;;5006659;28;20205;-70
2024/01/23 01:31:54;;;;;;;4.27;1.57;;;5.90;99.90;;;;;;5006447;28;20322;-70
2024/01/23 01:34:21;;;;;;;2.93;1.40;;;5.80;99.90;;;;;;5006132;28;20701;-69
2024/01/23 01:36:48;;;;;;;5.90;1.60;;;5.80;99.90;;;;;;5006159;28;20578;-70
2024/01/23 01:39:15;;;;;;;2.03;1.23;;;5.80;99.90;;;;;;5007058;28;20296;-71
2024/01/23 01:41:42;;;;;;;3.10;1.40;;;5.80;99.90;;;;;;5010178;28;20291;-70
2024/01/23 01:44:10;;;;;;;4.37;1.50;;;5.70;99.90;;;;;;5009943;28;20320;-71
2024/01/23 01:46:38;;;;;;;4.07;1.07;;;5.70;99.90;;;;;;5009973;28;20328;-70
2024/01/23 01:49:05;;;;;;;4.40;1.23;;;5.70;99.90;;;;;;5009942;28;20209;-70
2024/01/23 01:51:33;;;;;;;4.23;1.23;;;5.70;99.90;;;;;;5009706;28;20212;-70
2024/01/23 01:54:00;;;;;;;5.30;1.80;;;5.60;99.90;;;;;;5010045;28;20681;-70
2024/01/23 01:56:28;;;;;;;4.40;1.37;;;5.70;99.90;;;;;;5010066;28;20282;-70
2024/01/23 01:58:57;;;;;;;4.47;1.60;;;5.60;99.90;;;;;;5009780;28;20672;-70
2024/01/23 02:01:27;;;;;;;3.30;1.37;;;5.60;99.90;;;;;;5010059;28;20223;-71
2024/01/23 02:03:54;;;;;;;3.83;1.20;;;5.60;99.90;;;;;;5009568;28;20217;-71
2024/01/23 02:06:21;;;;;;;4.60;1.40;;;5.60;99.90;;;;;;5011025;28;20247;-71
2024/01/23 02:08:49;;;;;;;6.50;1.53;;;5.50;99.90;;;;;;5009668;28;20248;-71
2024/01/23 02:11:16;;;;;;;3.70;1.90;;;5.50;99.90;;;;;;5009805;28;20292;-71
2024/01/23 02:13:43;;;;;;;4.33;1.20;;;5.50;99.90;;;;;;5009561;28;20210;-71
2024/01/23 02:16:11;;;;;;;5.30;1.67;;;5.50;99.90;;;;;;5014970;28;20288;-71
2024/01/23 02:18:39;;;;;;;4.47;1.20;;;5.50;99.90;;;;;;5029216;28;20205;-71
2024/01/23 02:21:06;;;;;;;3.50;1.80;;;5.50;99.90;;;;;;5029345;28;20667;-71
2024/01/23 02:23:35;;;;;;;3.40;1.30;;;5.50;99.90;;;;;;5028791;28;20205;-71
2024/01/23 02:26:01;;;;;;;4.83;1.40;;;5.50;99.90;;;;;;5029458;28;20229;-71
2024/01/23 02:28:28;;;;;;;4.77;1.73;;;5.50;99.90;;;;;;5025096;28;20300;-71
2024/01/23 02:30:55;;;;;;;3.60;1.57;;;5.50;99.90;;;;;;5009152;28;20301;-71
2024/01/23 02:33:22;;;;;;;3.03;1.50;;;5.50;99.90;;;;;;5009310;28;20626;-71
2024/01/23 02:35:49;;;;;;;4.17;1.80;;;5.50;99.90;;;;;;5009311;28;20299;-71
2024/01/23 02:38:16;;;;;;;2.90;1.33;;;5.50;99.90;;;;;;5009369;28;20217;-72
2024/01/23 02:40:45;;;;;;;3.33;2.37;;;5.60;99.90;;;;;;5008982;28;20201;-72
2024/01/23 02:43:11;;;;;;;5.47;1.60;;;5.60;99.90;;;;;;5009399;28;20245;-72
2024/01/23 02:45:38;;;;;;;4.57;1.70;;;5.60;99.90;;;;;;5008685;28;20320;-72
2024/01/23 02:48:06;;;;;;;5.77;1.77;;;5.60;99.90;;;;;;5009986;28;20232;-72
2024/01/23 02:50:33;;;;;;;3.90;1.60;;;5.70;99.90;;;;;;5008698;28;20289;-71
2024/01/23 02:52:59;;;;;;;3.87;1.60;;;5.70;99.90;;;;;;5007965;28;20233;-71
2024/01/23 02:55:26;;;;;;;3.97;1.50;;;5.70;99.90;;;;;;5008897;28;20210;-71
2024/01/23 02:57:54;;;;;;;3.53;1.73;;;5.70;99.90;;;;;;5008632;28;20656;-71
2024/01/23 03:00:21;;;;;;;3.43;1.70;;;5.70;99.90;;;;;;5007921;28;21094;-71
2024/01/23 03:02:49;;;;;;;4.83;1.57;;;5.70;99.90;;;;;;5008531;28;20561;-71
2024/01/23 03:05:16;;;;;;;4.40;1.77;;;5.70;99.90;;;;;;5009310;28;20645;-72
2024/01/23 03:07:43;;;;;;;3.30;1.30;;;5.70;99.90;;;;;;5007984;28;20189;-70
2024/01/23 03:10:12;;;;;;;4.60;1.60;;;5.70;99.90;;;;;;5008050;28;20873;-71
2024/01/23 03:12:39;;;;;;;2.80;1.43;;;5.70;99.90;;;;;;5008056;28;20210;-71
2024/01/23 03:15:08;;;;;;;4.17;1.70;;;5.80;99.90;;;;;;5008388;28;20201;-71
2024/01/23 03:17:34;;;;;;;3.27;1.80;;;5.70;99.90;;;;;;5014820;28;20209;-70
2024/01/23 03:20:01;;;;;;;4.37;1.40;;;5.70;99.90;;;;;;5008188;28;20595;-70
2024/01/23 03:22:28;;;;;;;3.53;1.27;;;5.70;99.90;;;;;;5007776;28;20647;-72
2024/01/23 03:24:55;;;;;;;2.70;1.47;;;5.70;99.90;;;;;;5008221;28;20731;-70
2024/01/23 03:27:22;;;;;;;2.83;1.20;;;5.70;99.90;;;;;;5007693;28;20247;-70
2024/01/23 03:29:52;;;;;;;4.70;1.30;;;5.80;99.90;;;;;;5008005;28;20293;-70
2024/01/23 03:32:20;;;;;;;2.27;1.20;;;5.70;99.90;;;;;;5006309;28;20216;-71
2024/01/23 03:34:49;;;;;;;3.47;1.20;;;5.70;99.90;;;;;;5005946;28;20914;-70
2024/01/23 03:37:16;;;;;;;2.80;1.20;;;5.70;99.90;;;;;;5005990;28;20297;-71
2024/01/23 03:39:43;;;;;;;4.23;1.50;;;5.80;99.90;;;;;;5010947;28;20197;-71
2024/01/23 03:42:09;;;;;;;4.63;1.37;;;5.70;99.90;;;;;;5025203;28;20201;-70
2024/01/23 03:44:36;;;;;;;2.97;1.40;;;5.70;99.90;;;;;;5025536;28;20610;-71
2024/01/23 03:47:03;;;;;;;4.60;1.47;;;5.70;99.90;;;;;;5025855;28;20233;-71
2024/01/23 03:49:32;;;;;;;4.33;1.33;;;5.70;99.90;;;;;;5025959;28;20606;-70
2024/01/23 03:51:58;;;;;;;3.43;1.40;;;5.70;99.90;;;;;;5015425;28;20320;-70
2024/01/23 03:54:25;;;;;;;4.27;1.47;;;5.70;99.90;;;;;;5008606;28;20229;-70
2024/01/23 03:56:52;;;;;;;4.23;1.43;;;5.70;99.90;;;;;;5025962;28;20301;-71
2024/01/23 03:59:19;;;;;;;4.27;1.20;;;5.60;99.90;;;;;;5026226;28;20243;-70
2024/01/23 04:01:46;;;;;;;3.33;1.30;;;5.60;99.90;;;;;;5026282;28;20215;-71
2024/01/23 04:04:13;;;;;;;4.30;1.20;;;5.60;99.90;;;;;;5024988;28;20212;-71
2024/01/23 04:06:41;;;;;;;2.20;1.13;;;5.50;99.90;;;;;;5011629;28;20347;-71
2024/01/23 04:09:08;;;;;;;4.03;1.30;;;5.50;99.90;;;;;;5006827;28;20209;-71
2024/01/23 04:11:35;;;;;;;1.93;1.00;;;5.50;99.90;;;;;;5007489;28;20236;-71
2024/01/23 04:14:02;;;;;;;6.37;1.30;;;5.50;99.90;;;;;;5007161;28;20209;-71
2024/01/23 04:16:28;;;;;;;2.60;1.40;;;5.50;99.90;;;;;;5006946;28;20213;-71
2024/01/23 04:18:55;;;;;;;3.57;1.20;;;5.50;99.90;;;;;;5007315;28;20309;-70
2024/01/23 04:21:23;;;;;;;4.40;1.20;;;5.50;99.90;;;;;;5006829;28;20958;-71
2024/01/23 04:23:51;;;;;;;2.20;1.30;;;5.50;99.90;;;;;;5007318;28;20206;-71
2024/01/23 04:26:19;;;;;;;4.17;1.50;;;5.50;99.90;;;;;;5007083;28;20723;-71
2024/01/23 04:28:48;;;;;;;3.03;1.33;;;5.50;99.90;;;;;;5007133;28;20260;-71
2024/01/23 04:31:15;;;;;;;5.63;1.43;;;5.60;99.90;;;;;;5007076;28;20216;-71
2024/01/23 04:33:42;;;;;;;4.53;1.30;;;5.50;99.90;;;;;;5007158;28;20296;-71
2024/01/23 04:36:09;;;;;;;2.63;1.27;;;5.60;99.90;;;;;;5006916;28;20409;-70
2024/01/23 04:38:35;;;;;;;4.60;1.57;;;5.50;99.90;;;;;;5006878;28;20233;-71
2024/01/23 04:41:04;;;;;;;1.37;0.97;;;5.60;99.90;;;;;;5007316;28;20236;-70
2024/01/23 04:43:31;;;;;;;3.50;1.30;;;5.60;99.90;;;;;;5006665;28;20316;-71
2024/01/23 04:45:59;;;;;;;3.80;1.20;;;5.60;99.90;;;;;;5006840;28;20655;-71
2024/01/23 04:48:26;;;;;;;4.63;1.43;;;5.60;99.90;;;;;;5006465;28;20216;-71
2024/01/23 04:50:52;;;;;;;4.90;1.50;;;5.60;99.90;;;;;;5007049;28;20304;-70
2024/01/23 04:53:19;;;;;;;4.87;1.37;;;5.60;99.90;;;;;;5006682;28;20327;-71
2024/01/23 04:55:46;;;;;;;6.47;1.37;;;5.60;99.90;;;;;;5006556;28;20248;-71
2024/01/23 04:58:14;;;;;;;2.57;1.40;;;5.50;99.90;;;;;;5006483;28;20248;-71
2024/01/23 05:00:41;;;;;;;3.37;1.20;;;5.50;99.90;;;;;;5006813;28;20268;-71
2024/01/23 05:03:08;;;;;;;5.13;1.40;;;5.50;99.90;;;;;;5006759;28;20292;-71
2024/01/23 05:05:35;;;;;;;3.13;1.10;;;5.50;99.90;;;;;;5006533;28;20245;-71
2024/01/23 05:08:02;;;;;;;3.43;1.20;;;5.40;99.90;;;;;;5006184;28;20329;-71
2024/01/23 05:10:29;;;;;;;3.83;1.07;;;5.40;99.90;;;;;;5006746;28;20223;-71
2024/01/23 05:12:56;;;;;;;2.70;1.30;;;5.40;99.90;;;;;;5006998;28;20580;-70
2024/01/23 05:15:24;;;;;;;8.07;1.60;;;5.40;99.90;;;;;;5009434;28;20292;-70
2024/01/23 05:17:51;;;;;;;5.67;1.30;;;5.40;99.90;;;;;;5010317;28;20296;-71
2024/01/23 05:20:19;;;;;;;4.23;1.30;;;5.40;99.90;;;;;;5010235;28;20687;-71
2024/01/23 05:22:46;;;;;;;4.60;1.40;;;5.30;99.90;;;;;;5010307;28;20206;-71
2024/01/23 05:25:13;;;;;;;4.37;1.30;;;5.30;99.90;;;;;;5010804;28;20237;-71
2024/01/23 05:27:40;;;;;;;5.63;1.30;;;5.30;99.90;;;;;;5010361;28;20237;-71
2024/01/23 05:30:08;;;;;;;4.07;1.10;;;5.20;99.90;;;;;;5010458;28;20668;-70
2024/01/23 05:32:36;;;;;;;4.47;1.67;;;5.10;99.90;;;;;;5010208;28;20567;-70
2024/01/23 05:35:04;;;;;;;6.90;1.37;;;5.00;99.90;;;;;;5010072;28;20206;-70
2024/01/23 05:37:31;;;;;;;1.63;1.00;;;5.10;99.90;;;;;;5009933;28;20205;-70
2024/01/23 05:39:58;;;;;;;4.03;1.07;;;5.10;99.90;;;;;;5010429;28;20229;-71
2024/01/23 05:42:25;;;;;;;4.93;1.60;;;5.10;99.90;;;;;;5010364;28;20209;-70
2024/01/23 05:44:52;;;;;;;3.10;1.00;;;5.10;99.90;;;;;;5010248;28;21033;-70
2024/01/23 05:47:19;;;;;;;3.13;1.23;;;5.10;99.90;;;;;;5010083;28;20277;-71
2024/01/23 05:49:47;;;;;;;2.40;1.23;;;5.10;99.90;;;;;;5010048;28;20288;-71
2024/01/23 05:52:15;;;;;;;3.10;1.90;;;5.00;99.90;;;;;;5006026;28;20268;-70
2024/01/23 05:54:44;;;;;;;5.33;1.33;;;5.00;99.90;;;;;;5009872;28;20589;-70
2024/01/23 05:57:11;;;;;;;3.37;1.40;;;5.00;99.90;;;;;;5009914;28;20237;-70
2024/01/23 05:59:38;;;;;;;3.27;0.93;;;5.00;99.90;;;;;;5009502;28;20664;-70
2024/01/23 06:02:05;;;;;;;4.40;1.53;;;5.00;99.90;;;;;;5009719;28;20271;-71
2024/01/23 06:04:32;;;;;;;2.53;1.20;;;5.00;99.90;;;;;;5009209;28;20216;-71
2024/01/23 06:07:00;;;;;;;6.80;1.67;;;5.00;99.90;;;;;;5009224;28;20320;-70
2024/01/23 06:09:29;;;;;;;4.70;1.73;;;5.10;99.90;;;;;;5009507;28;20288;-71
2024/01/23 06:11:56;;;;;;;6.40;2.10;;;5.10;99.90;;;;;;5009374;28;20300;-71
2024/01/23 06:14:23;;;;;;;3.70;1.60;;;5.10;99.90;;;;;;5008803;28;20718;-70
2024/01/23 06:16:50;;;;;;;4.37;1.57;;;5.20;99.90;;;;;;5009319;28;20236;-71
2024/01/23 06:19:18;;;;;;;3.60;1.60;;;5.20;99.90;;;;;;5009369;28;20209;-71
2024/01/23 06:21:45;;;;;;;3.87;1.77;;;5.20;99.90;;;;;;5008864;28;20296;-71
2024/01/23 06:24:13;;;;;;;6.87;1.67;;;5.20;99.90;;;;;;5009292;28;20210;-71
2024/01/23 06:26:40;;;;;;;4.47;1.50;;;5.20;99.90;;;;;;5008008;28;20332;-71
2024/01/23 06:29:07;;;;;;;3.70;2.13;;;5.30;99.90;;;;;;5009379;28;20293;-71
2024/01/23 06:31:34;;;;;;;5.30;1.60;;;5.30;99.90;;;;;;5008849;28;20213;-71
2024/01/23 06:34:02;;;;;;;4.30;1.60;;;5.30;99.90;;;;;;5009082;28;20292;-70
2024/01/23 06:36:31;;;;;;;7.20;1.80;;;5.30;99.90;;;;;;5008701;28;20220;-71
2024/01/23 06:38:58;;;;;;;5.37;1.60;;;5.30;99.90;;;;;;5008962;28;20699;-71
2024/01/23 06:41:27;;;;;;;11.73;2.20;;;5.30;99.90;;;;;;5009104;28;20205;-71
2024/01/23 06:43:53;;;;;;;4.70;1.60;;;5.40;99.90;;;;;;5008533;28;20312;-71
2024/01/23 06:46:20;;;;;;;5.70;1.80;;;5.40;99.90;;;;;;5008193;28;20680;-70
2024/01/23 06:48:47;;;;;;;4.80;1.60;;;5.40;99.90;;;;;;5008514;28;20212;-71
2024/01/23 06:51:14;;;;;;;7.23;1.87;;;5.40;99.90;;;;;;5008842;28;20320;-70
2024/01/23 06:53:41;;;;;;;4.13;1.57;;;5.40;99.90;;;;;;5008190;28;20327;-71
2024/01/23 06:56:08;;;;;;;5.33;2.03;;;5.50;99.90;;;;;;5008656;28;20323;-70
2024/01/23 06:58:36;;;;;;;7.47;1.63;;;5.50;99.90;;;;;;5007952;28;20337;-71
2024/01/23 07:01:03;;;;;;;4.27;1.60;;;5.50;99.90;;;;;;5008711;28;20293;-70
2024/01/23 07:03:31;;;;;;;4.07;2.07;;;5.60;99.90;;;;;;5008567;28;20268;-70
2024/01/23 07:05:57;;;;;;;7.67;1.83;;;5.60;99.90;;;;;;5008458;28;20210;-70
2024/01/23 07:08:24;;;;;;;5.00;2.03;;;5.60;99.90;;;;;;5007853;28;20787;-71
2024/01/23 07:10:51;;;;;;;5.00;1.47;;;5.70;99.90;;;;;;5008177;28;20640;-70
2024/01/23 07:13:18;;;;;;;8.17;1.97;;;5.70;99.90;;;;;;5008486;28;20248;-71
2024/01/23 07:15:46;;;;;;;5.50;1.70;;;5.70;99.90;;;;;;5008339;28;20296;-70
2024/01/23 07:18:13;;;;;;;8.13;1.70;;;5.70;99.90;;;;;;5008160;28;20748;-70
2024/01/23 07:20:40;;;;;;;7.53;2.00;;;5.80;99.90;;;;;;5008400;28;20297;-71
2024/01/23 07:23:07;;;;;;;8.83;1.97;;;5.80;99.90;;;;;;5007875;28;20247;-70
2024/01/23 07:25:34;;;;;;;9.60;2.00;;;5.80;99.90;;;;;;5008066;28;20292;-70
2024/01/23 07:28:01;;;;;;;5.80;2.10;;;5.80;99.90;;;;;;5007814;28;20239;-71
2024/01/23 07:30:28;;;;;;;5.50;2.00;;;5.90;99.90;;;;;;5007914;28;20201;-71
2024/01/23 07:32:56;;;;;;;5.67;1.50;;;5.90;99.90;;;;;;5008073;28;20210;-70
2024/01/23 07:35:23;;;;;;;5.13;1.63;;;5.90;99.90;;;;;;5007839;28;20260;-70
2024/01/23 07:37:51;;;;;;;9.67;2.13;;;5.90;99.90;;;;;;5007295;28;20790;-71
2024/01/23 07:40:18;;;;;;;6.93;2.10;;;5.90;99.90;;;;;;5007731;28;20328;-70
2024/01/23 07:42:45;;;;;;;4.97;1.83;;;5.90;99.90;;;;;;5007674;28;20320;-71
2024/01/23 07:45:12;;;;;;;5.87;2.40;;;5.90;99.90;;;;;;5007688;28;20316;-70
2024/01/23 07:47:39;;;;;;;7.17;2.53;;;5.90;99.90;;;;;;5007691;28;20424;-71
2024/01/23 07:50:08;;;;;;;6.90;1.90;;;6.00;99.90;;;;;;5007535;28;20685;-70
2024/01/23 07:52:35;;;;;;;4.37;2.10;;;6.00;99.90;;;;;;5007042;28;20295;-70
2024/01/23 07:55:02;;;;;;;6.40;2.50;;;6.00;99.90;;;;;;5007383;28;20275;-71
2024/01/23 07:57:29;;;;;;;5.30;1.87;;;6.00;99.90;;;;;;5007287;28;20783;-71
2024/01/23 07:59:57;;;;;;;7.03;2.50;;;6.00;99.90;;;;;;5007371;28;20289;-71
2024/01/23 08:02:25;;;;;;;4.87;2.20;;;6.00;99.90;;;;;;5007937;28;20247;-71
2024/01/23 08:04:52;;;;;;;12.70;2.30;;;6.00;99.90;;;;;;5007724;28;20637;-71
2024/01/23 08:07:20;;;;;;;6.53;2.60;;;6.10;99.90;;;;;;5006714;28;20241;-71
2024/01/23 08:09:47;;;;;;;5.57;1.73;;;6.10;99.90;;;;;;5007594;28;20213;-71
2024/01/23 08:12:14;;;;;;;8.07;2.27;;;6.10;99.90;;;;;;5007428;28;20214;-71
2024/01/23 08:14:41;;;;;;;6.90;2.20;;;6.10;99.90;;;;;;5007179;28;20211;-71
2024/01/23 08:17:08;;;;;;;10.20;2.40;;;6.20;99.90;;;;;;5007689;28;20294;-70
2024/01/23 08:19:37;;;;;;;10.13;2.30;;;6.20;99.90;;;;;;5007152;28;20743;-71
2024/01/23 08:22:04;;;;;;;6.80;2.20;;;6.20;99.90;;;;;;5007063;28;20201;-71
2024/01/23 08:24:32;;;;;;;7.47;2.47;;;6.30;99.90;;;;;;5007249;28;20241;-71
2024/01/23 08:26:59;;;;;;;6.60;2.47;;;6.30;99.90;;;;;;5007020;28;20643;-71
2024/01/23 08:29:26;;;;;;;11.87;2.40;;;6.30;99.90;;;;;;5006654;28;20255;-71
2024/01/23 08:31:53;;;;;;;5.67;1.70;;;6.30;99.90;;;;;;5006974;28;20304;-71
2024/01/23 08:34:20;;;;;;;9.93;2.47;;;6.30;99.90;;;;;;5007312;28;20292;-71
2024/01/23 08:36:47;;;;;;;5.67;2.30;;;6.40;99.90;;;;;;5006899;28;20304;-71
2024/01/23 08:39:13;;;;;;;7.00;2.03;;;6.40;99.90;;;;;;5007066;28;20299;-70
2024/01/23 08:41:42;;;;;;;10.17;2.83;;;6.40;99.90;;;;;;5006960;28;20746;-71
2024/01/23 08:44:09;;;;;;;4.17;1.87;;;6.40;99.90;;;;;;5006962;28;20312;-71
2024/01/23 08:46:35;;;;;;;7.13;2.27;;;6.40;99.90;;;;;;5006788;28;20746;-71
2024/01/23 08:49:03;;;;;;;6.47;2.53;;;6.50;99.90;;;;;;5006950;28;20725;-70
2024/01/23 08:51:30;;;;;;;9.00;2.17;;;6.50;99.90;;;;;;5010425;28;20209;-70
2024/01/23 08:53:57;;;;;;;7.00;2.30;;;6.50;99.90;;;;;;5010615;28;20685;-70
2024/01/23 08:56:24;;;;;;;5.50;2.50;;;6.50;99.90;;;;;;5011190;28;20241;-71
2024/01/23 08:58:53;;;;;;;8.67;2.33;;;6.50;99.90;;;;;;5010865;28;20776;-71
2024/01/23 09:01:19;;;;;;;8.80;2.27;;;6.50;99.90;;;;;;5010843;28;20213;-70
2024/01/23 09:03:46;;;;;;;7.17;2.43;;;6.60;99.90;;;;;;5010371;28;20209;-71
2024/01/23 09:06:13;;;;;;;7.70;2.03;;;6.60;99.90;;;;;;5011055;28;20257;-71
2024/01/23 09:08:42;;;;;;;9.63;2.20;;;6.60;99.90;;;;;;5010511;28;20271;-71
2024/01/23 09:11:09;;;;;;;8.27;2.47;;;6.70;99.90;;;;;;5010726;28;20320;-70
2024/01/23 09:13:36;;;;;;;9.03;1.90;;;6.70;99.90;;;;;;5010772;28;20292;-70
2024/01/23 09:16:05;;;;;;;10.63;2.20;;;6.80;99.90;;;;;;5010533;28;20675;-70
2024/01/23 09:18:31;;;;;;;7.13;2.50;;;6.80;99.90;;;;;;5010611;28;20626;-70
2024/01/23 09:21:02;;;;;;;6.27;2.20;;;6.80;99.90;;;;;;5010767;28;20300;-70
2024/01/23 09:23:29;;;;;;;8.83;2.43;;;6.80;99.90;;;;;;5010336;28;20197;-70
2024/01/23 09:25:56;;;;;;;6.27;2.10;;;6.80;99.90;;;;;;5010568;28;20787;-70
2024/01/23 09:28:24;;;;;;;9.47;2.70;;;6.80;99.90;;;;;;5010334;28;20327;-70
2024/01/23 09:30:50;;;;;;;6.10;2.10;;;6.90;99.90;;;;;;5010333;28;20206;-70
2024/01/23 09:33:19;;;;;;;7.30;2.07;;;6.90;99.90;;;;;;5010549;28;20237;-70
2024/01/23 09:35:46;;;;;;;7.07;2.30;;;6.90;99.90;;;;;;5010152;28;20323;-70
2024/01/23 09:38:13;;;;;;;9.27;2.40;;;6.90;99.90;;;;;;5009923;28;20882;-70
2024/01/23 09:40:42;;;;;;;9.73;2.53;;;6.90;99.90;;;;;;5010183;28;20248;-70
2024/01/23 09:43:12;;;;;;;8.87;2.33;;;7.00;99.90;;;;;;5010092;28;20249;-71
2024/01/23 09:45:40;;;;;;;9.40;2.57;;;7.00;99.90;;;;;;5010166;28;20214;-70
2024/01/23 09:48:08;;;;;;;9.30;2.57;;;7.00;99.90;;;;;;5009935;28;20699;-70
2024/01/23 09:50:41;;;;;;;6.70;2.07;;;7.10;99.90;;;;;;5010078;28;20221;-70
2024/01/23 09:53:09;;;;;;;9.23;2.20;;;7.20;99.90;;;;;;5009625;28;20237;-71
2024/01/23 09:55:36;;;;;;;9.13;2.30;;;7.30;99.90;;;;;;5009759;28;20296;-70
2024/01/23 09:58:04;;;;;;;5.80;2.50;;;7.30;99.90;;;;;;5009638;28;20209;-71
2024/01/23 10:00:31;;;;;;;7.00;2.60;;;7.30;99.90;;;;;;5008544;28;20220;-71
2024/01/23 10:02:58;;;;;;;6.93;2.23;;;7.30;99.90;;;;;;5009482;28;20633;-70
2024/01/23 10:05:25;;;;;;;7.37;2.43;;;7.40;99.90;;;;;;5009740;28;20715;-70
2024/01/23 10:07:54;;;;;;;6.07;2.17;;;7.40;99.90;;;;;;5009556;28;20260;-70
2024/01/23 10:10:21;;;;;;;10.50;2.50;;;7.40;99.90;;;;;;5009389;28;20296;-70
2024/01/23 10:12:49;;;;;;;6.80;2.17;;;7.40;99.90;;;;;;5009267;28;20690;-70
2024/01/23 10:15:21;;;;;;;8.10;2.37;;;7.40;99.90;;;;;;5009744;28;20233;-70
2024/01/23 10:17:48;;;;;;;6.03;2.30;;;7.40;99.90;;;;;;5009709;28;20197;-71
2024/01/23 10:20:16;;;;;;;9.20;2.37;;;7.40;99.90;;;;;;5009295;28;20730;-70
2024/01/23 10:22:44;;;;;;;8.67;2.50;;;7.40;99.90;;;;;;5009028;28;20209;-70
2024/01/23 10:25:19;;;;;;;6.70;2.70;;;7.50;99.90;;;;;;5009138;28;20299;-70
2024/01/23 10:27:50;;;;;;;6.40;2.37;;;7.50;99.90;;;;;;5009567;28;20357;-70
2024/01/23 10:30:18;;;;;;;8.63;2.33;;;7.60;99.90;;;;;;5009348;28;20201;-71
2024/01/23 10:32:45;;;;;;;10.00;2.60;;;7.60;99.90;;;;;;5009222;28;20324;-70
2024/01/23 10:35:12;;;;;;;7.33;2.77;;;7.60;99.90;;;;;;5008940;28;20213;-70
2024/01/23 10:37:40;;;;;;;9.40;2.57;;;7.60;99.90;;;;;;5008538;28;20205;-70
2024/01/23 10:40:11;;;;;;;4.87;1.97;;;7.60;99.90;;;;;;5009462;28;20205;-70
2024/01/23 10:42:40;;;;;;;11.93;2.80;;;7.60;99.90;;;;;;5009018;28;20991;-70
2024/01/23 10:45:11;;;;;;;10.40;2.30;;;7.60;99.90;;;;;;5009053;28;20320;-70
2024/01/23 10:47:38;;;;;;;5.15;2.25;;;7.60;99.90;;;;;;5009062;28;20212;-70
2024/01/23 10:50:06;;;;;;;9.17;2.60;;;7.60;99.90;;;;;;5008968;28;20232;-70
2024/01/23 10:52:39;;;;;;;10.20;2.93;;;7.60;99.90;;;;;;5008370;28;20320;-70
2024/01/23 10:55:07;;;;;;;7.37;2.67;;;7.70;99.90;;;;;;5008709;28;20206;-70
2024/01/23 10:57:37;;;;;;;9.27;2.50;;;7.70;99.90;;;;;;5008400;28;20209;-70
2024/01/23 11:00:07;;;;;;;8.00;2.67;;;7.70;99.90;;;;;;5008332;28;20204;-70
2024/01/23 11:02:39;;;;;;;7.13;2.43;;;7.60;99.90;;;;;;5008694;28;20201;-70
2024/01/23 11:05:07;;;;;;;7.80;2.37;;;7.60;99.90;;;;;;5008196;28;20538;-70
2024/01/23 11:07:40;;;;;;;9.10;2.37;;;7.60;99.90;;;;;;5008123;28;20217;-70
2024/01/23 11:10:16;;;;;;;9.03;2.53;;;7.60;99.90;;;;;;5008165;28;20679;-70
2024/01/23 11:12:50;;;;;;;6.67;2.30;;;7.60;99.90;;;;;;5007865;28;20201;-70
2024/01/23 11:15:19;;;;;;;10.17;2.70;;;7.60;99.90;;;;;;5008270;28;20220;-70
2024/01/23 11:17:46;;;;;;;8.93;2.33;;;7.70;99.90;;;;;;5008148;28;20447;-70
2024/01/23 11:20:17;;;;;;;7.03;2.37;;;7.70;99.90;;;;;;5008400;28;20233;-70
2024/01/23 11:22:44;;;;;;;8.20;2.07;;;7.90;99.90;;;;;;5007807;28;20312;-70
2024/01/23 11:25:11;;;;;;;9.87;2.47;;;8.10;99.90;;;;;;5008437;28;20559;-70
2024/01/23 11:27:40;;;;;;;6.83;2.33;;;8.10;99.90;;;;;;5007852;28;20245;-70
2024/01/23 11:30:11;;;;;;;10.47;2.77;;;8.20;99.90;;;;;;5007785;28;20241;-70
2024/01/23 11:32:40;;;;;;;8.63;3.00;;;8.10;99.90;;;;;;5007796;28;20656;-70
2024/01/23 11:35:12;;;;;;;7.27;2.13;;;8.10;99.90;;;;;;5007880;28;20747;-70
2024/01/23 11:37:45;;;;;;;6.40;2.20;;;8.10;99.90;;;;;;5007358;28;20246;-71
2024/01/23 11:40:33;;;;;;;7.97;2.80;;;8.10;99.90;;;;;;5008043;28;20202;-70
2024/01/23 11:43:02;;;;;;;11.70;2.77;;;8.10;99.90;;;;;;5008008;28;20304;-70
2024/01/23 11:45:30;;;;;;;10.00;2.47;;;8.10;99.90;;;;;;5007450;28;20463;-70
2024/01/23 11:48:00;;;;;;;9.47;2.80;;;8.10;99.90;;;;;;5007979;28;20297;-71
2024/01/23 11:50:29;;;;;;;12.07;2.83;;;8.20;99.90;;;;;;5007969;28;20301;-70
2024/01/23 11:52:58;;;;;;;11.27;2.97;;;8.20;99.90;;;;;;5007198;28;20240;-70
2024/01/23 11:55:26;;;;;;;14.97;2.90;;;8.30;99.90;;;;;;5007492;28;20295;-70
2024/01/23 11:57:54;;;;;;;7.93;2.70;;;8.30;99.90;;;;;;5007874;28;20318;-70
2024/01/23 12:00:22;;;;;;;11.50;2.70;;;8.30;99.90;;;;;;5007588;28;20308;-70
2024/01/23 12:02:50;;;;;;;8.20;3.00;;;8.30;99.90;;;;;;5007357;28;20209;-70
2024/01/23 12:05:19;;;;;;;9.57;2.30;;;8.30;99.90;;;;;;5003630;28;20224;-70
2024/01/23 12:07:47;;;;;;;8.07;2.37;;;8.20;99.90;;;;;;4987424;28;20219;-70
2024/01/23 12:10:17;;;;;;;18.50;3.30;;;8.20;99.90;;;;;;4987972;28;20337;-70
2024/01/23 12:12:44;;;;;;;12.00;2.53;;;8.10;99.90;;;;;;4988063;28;20220;-70
2024/01/23 12:15:11;;;;;;;12.07;2.83;;;8.10;99.90;;;;;;4988087;28;20885;-70
2024/01/23 12:17:46;;;;;;;8.27;2.30;;;8.10;99.90;;;;;;4987497;28;20765;-70
2024/01/23 12:20:14;;;;;;;7.70;2.80;;;8.00;99.90;;;;;;4987945;28;20197;-70
2024/01/23 12:22:42;;;;;;;12.03;3.20;;;8.00;99.90;;;;;;4987764;28;20585;-70
2024/01/23 12:25:11;;;;;;;12.83;2.83;;;8.00;99.90;;;;;;4987172;28;20293;-70
2024/01/23 12:27:38;;;;;;;13.90;2.87;;;8.00;99.90;;;;;;4987649;28;20213;-70
2024/01/23 12:30:10;;;;;;;11.17;2.90;;;8.00;99.90;;;;;;4987357;28;20328;-70
2024/01/23 12:32:37;;;;;;;8.67;2.70;;;8.00;99.90;;;;;;4987674;28;20201;-70
2024/01/23 12:35:09;;;;;;;10.90;2.70;;;8.00;99.90;;;;;;4989747;28;20245;-70
2024/01/23 12:37:38;;;;;;;10.57;2.57;;;8.00;99.90;;;;;;5006955;28;20202;-71
2024/01/23 12:40:09;;;;;;;9.67;2.53;;;8.00;99.90;;;;;;5007242;28;20248;-70
2024/01/23 12:42:39;;;;;;;10.60;2.70;;;8.00;99.90;;;;;;5006755;28;20560;-71
2024/01/23 12:45:10;;;;;;;10.90;2.90;;;8.00;99.90;;;;;;5006735;28;20225;-70
2024/01/23 12:47:38;;;;;;;11.80;3.20;;;8.00;99.90;;;;;;5006604;28;20205;-70
2024/01/23 12:50:06;;;;;;;10.17;2.90;;;8.00;99.90;;;;;;5007051;28;20295;-70
2024/01/23 12:52:32;;;;;;;20.83;2.93;;;8.10;99.90;;;;;;5006481;28;20316;-70
2024/01/23 12:55:00;;;;;;;11.47;2.60;;;8.10;99.90;;;;;;5006783;28;20240;-70
2024/01/23 12:57:29;;;;;;;12.47;3.13;;;8.10;99.90;;;;;;5007059;28;20292;-71